Time;durP1;ratioP1;P1;durP2;ratioP2;P2;SDS_P1;SDS_P2;PMS_P1;PMS_P2;Temp;Humidity;BMP_temperature;BMP_pressure;BME280_temperature;BME280_humidity;BME280_pressure;Samples;Min_cycle;Max_cycle;Signal;HPM_P1;HPM_P2
2023/02/16 00:05:35;;;;;;;122.20;54.40;;;;;;;-1.03;100.00;101362.80;214160;1288;139092;-89
2023/02/16 00:17:36;;;;;;;124.60;55.40;;;;;;;-1.09;100.00;101362.66;214103;1294;139360;-89
2023/02/16 00:35:43;;;;;;;129.60;54.30;;;;;;;-1.16;100.00;101350.86;213866;1288;138896;-89
2023/02/16 00:47:37;;;;;;;119.60;49.80;;;;;;;-1.21;100.00;101334.67;213602;1289;139636;-90
2023/02/16 00:53:30;;;;;;;124.90;51.70;;;;;;;-1.25;100.00;101336.59;213890;1292;138843;-90
2023/02/16 00:59:32;;;;;;;104.80;45.20;;;;;;;-1.29;100.00;101333.64;213449;1293;139106;-90
2023/02/16 01:11:34;;;;;;;115.50;51.50;;;;;;;-1.35;100.00;101322.70;213439;1293;140392;-90
2023/02/16 01:17:35;;;;;;;115.80;49.30;;;;;;;-1.38;100.00;101315.31;213636;1289;139542;-91
2023/02/16 01:23:37;;;;;;;117.10;53.40;;;;;;;-1.41;100.00;101312.35;214084;1291;139878;-88
2023/02/16 01:29:38;;;;;;;129.20;52.30;;;;;;;-1.43;100.00;101308.96;213455;1288;139564;-89
2023/02/16 01:35:41;;;;;;;121.60;51.40;;;;;;;-1.45;100.00;101302.92;214369;1291;138850;-91
2023/02/16 02:00:21;;;;;;;122.60;50.10;;;;;;;-1.59;100.00;101279.40;213713;1288;139170;-90
2023/02/16 02:12:27;;;;;;;114.80;48.70;;;;;;;-1.66;100.00;101267.81;214569;1289;109958;-90
2023/02/16 02:24:28;;;;;;;111.50;48.40;;;;;;;-1.72;100.00;101260.84;214378;1290;105679;-89
2023/02/16 02:30:38;;;;;;;118.00;49.20;;;;;;;-1.75;100.00;101261.70;213847;1289;138879;-89
2023/02/16 02:36:51;;;;;;;115.30;47.70;;;;;;;-1.80;100.00;101262.68;213812;1294;139240;-89
2023/02/16 02:42:53;;;;;;;92.00;43.00;;;;;;;-1.83;100.00;101253.15;214770;1289;97955;-87
2023/02/16 02:48:55;;;;;;;110.30;44.40;;;;;;;-1.86;100.00;101259.52;214146;1288;138669;-87
2023/02/16 03:01:02;;;;;;;107.90;42.70;;;;;;;-1.91;100.00;101251.61;213975;1292;139332;-88
2023/02/16 03:07:08;;;;;;;99.90;42.40;;;;;;;-1.91;100.00;101249.34;213829;1294;139847;-87
2023/02/16 03:13:10;;;;;;;100.40;41.00;;;;;;;-1.93;100.00;101251.77;214349;1292;97932;-87
2023/02/16 03:37:12;;;;;;;91.20;37.00;;;;;;;-2.04;100.00;101259.79;213624;1298;139128;-86
2023/02/16 03:49:14;;;;;;;87.10;35.50;;;;;;;-2.08;100.00;101259.37;213834;1291;138538;-87
2023/02/16 04:01:16;;;;;;;90.00;35.20;;;;;;;-2.12;100.00;101256.89;213767;1293;141058;-88
2023/02/16 04:07:18;;;;;;;82.80;35.90;;;;;;;-2.13;100.00;101254.69;213818;1289;138816;-87
2023/02/16 04:13:19;;;;;;;89.20;35.10;;;;;;;-2.14;100.00;101249.90;214266;1289;111520;-88
2023/02/16 04:19:22;;;;;;;83.60;36.20;;;;;;;-2.16;100.00;101245.48;213672;1292;139001;-87
2023/02/16 04:25:20;;;;;;;;;;;;;;;;;;;;;
2023/02/16 04:37:27;;;;;;;75.70;32.20;;;;;;;-2.22;100.00;101226.56;213680;1290;139309;-87
2023/02/16 04:43:28;;;;;;;79.40;33.30;;;;;;;-2.25;100.00;101226.80;214120;1293;111227;-87
2023/02/16 04:49:30;;;;;;;82.20;35.20;;;;;;;-2.28;100.00;101224.90;213745;1295;138748;-86
2023/02/16 05:01:33;;;;;;;83.80;33.10;;;;;;;-2.32;100.00;101215.41;213911;1289;139037;-86
2023/02/16 05:07:35;;;;;;;76.30;31.80;;;;;;;-2.35;100.00;101211.44;213671;1289;138723;-86
2023/02/16 05:25:56;;;;;;;78.20;30.40;;;;;;;-2.39;100.00;101221.90;214065;1293;109792;-87
2023/02/16 05:31:57;;;;;;;80.00;30.70;;;;;;;-2.42;100.00;101217.54;214177;1289;111436;-87
2023/02/16 05:37:59;;;;;;;80.80;31.80;;;;;;;-2.43;100.00;101224.77;213685;1288;139190;-86
2023/02/16 05:44:00;;;;;;;83.10;32.20;;;;;;;-2.46;100.00;101220.19;214058;1288;111440;-86
2023/02/16 05:50:01;;;;;;;84.30;34.00;;;;;;;-2.47;100.00;101223.33;213832;1289;139191;-86
2023/02/16 05:56:03;;;;;;;79.30;30.80;;;;;;;-2.51;100.00;101223.17;214103;1289;109835;-86
2023/02/16 06:01:53;;;;;;;;;;;;;;;;;;;;;
2023/02/16 06:07:57;;;;;;;83.50;31.00;;;;;;;-2.53;100.00;101226.98;213621;1289;138915;-85
2023/02/16 06:13:51;;;;;;;75.30;32.10;;;;;;;-2.56;100.00;101224.95;214094;1294;139020;-86
2023/02/16 06:19:50;;;;;;;84.10;30.90;;;;;;;-2.58;100.00;101234.28;213834;1288;139791;-87
2023/02/16 06:25:52;;;;;;;82.40;30.80;;;;;;;-2.60;100.00;101237.61;214323;1292;139625;-87
2023/02/16 06:31:40;;;;;;;82.00;33.40;;;;;;;-2.61;100.00;101234.39;213732;1289;138919;-87
2023/02/16 06:37:42;;;;;;;77.50;32.60;;;;;;;-2.60;100.00;101232.94;213775;1288;138959;-87
2023/02/16 06:43:36;;;;;;;89.50;37.20;;;;;;;-2.60;100.00;101229.32;214471;1293;139243;-86
2023/02/16 06:55:42;;;;;;;78.90;33.20;;;;;;;-2.56;100.00;101222.58;214143;1289;139154;-86
2023/02/16 07:13:45;;;;;;;;;;;;;;;;;;;;;
2023/02/16 07:19:46;;;;;;;83.00;34.30;;;;;;;-2.28;100.00;101201.98;213751;1292;139030;-86
2023/02/16 07:25:47;;;;;;;84.30;32.50;;;;;;;-2.17;100.00;101202.45;214127;1288;139138;-85
2023/02/16 07:31:47;;;;;;;93.80;40.60;;;;;;;-2.02;100.00;101208.48;213615;1289;139488;-87
2023/02/16 07:37:48;;;;;;;84.00;36.00;;;;;;;-1.83;100.00;101194.66;213609;1287;139468;-86
2023/02/16 07:43:49;;;;;;;83.00;34.80;;;;;;;-1.63;100.00;101194.89;214116;1288;139609;-86
2023/02/16 07:49:51;;;;;;;103.80;43.30;;;;;;;-1.42;100.00;101204.37;213521;1288;139129;-86
2023/02/16 07:55:52;;;;;;;101.30;38.40;;;;;;;-1.17;100.00;101195.73;213959;1288;139155;-87
2023/02/16 08:02:11;;;;;;;101.40;45.90;;;;;;;-0.88;100.00;101199.09;213638;1294;139176;-88
2023/02/16 08:08:14;;;;;;;166.00;72.30;;;;;;;-0.62;100.00;101193.77;213518;1289;139318;-88
2023/02/16 08:14:17;;;;;;;104.00;43.20;;;;;;;-0.33;100.00;101193.80;214191;1292;105031;-89
2023/02/16 08:20:19;;;;;;;83.90;35.00;;;;;;;-0.06;100.00;101199.85;213962;1288;139214;-90
2023/02/16 08:26:21;;;;;;;73.30;29.70;;;;;;;0.17;100.00;101200.53;213742;1292;138905;-88
2023/02/16 08:32:24;;;;;;;83.60;34.70;;;;;;;0.42;100.00;101199.83;213791;1288;96630;-87
2023/02/16 08:38:24;;;;;;;74.40;30.20;;;;;;;0.69;100.00;101210.02;213525;1289;138889;-88
2023/02/16 08:44:26;;;;;;;77.80;29.70;;;;;;;0.95;100.00;101211.58;214056;1288;139385;-91
2023/02/16 08:50:20;;;;;;;;;;;;;;;;;;;;;
2023/02/16 08:56:32;;;;;;;70.80;29.10;;;;;;;1.52;100.00;101210.42;213507;1288;139034;-88
2023/02/16 09:02:33;;;;;;;67.70;28.50;;;;;;;1.83;100.00;101212.47;213990;1291;97946;-88
2023/02/16 09:08:36;;;;;;;60.60;27.00;;;;;;;2.18;100.00;101213.67;213481;1289;139177;-87
2023/02/16 09:14:35;;;;;;;56.80;27.20;;;;;;;2.62;100.00;101216.45;214069;1288;98107;-89
2023/02/16 09:20:37;;;;;;;55.40;26.30;;;;;;;3.04;100.00;101219.38;209407;1292;5358782;-88
2023/02/16 09:26:41;;;;;;;57.30;26.20;;;;;;;3.42;100.00;101227.11;213517;1294;139246;-88
2023/02/16 09:44:58;;;;;;;50.80;23.70;;;;;;;4.50;100.00;101227.23;213847;1291;97898;-90
2023/02/16 09:57:11;;;;;;;51.20;24.30;;;;;;;5.07;100.00;101215.48;213209;1290;139089;-90
2023/02/16 10:09:20;;;;;;;46.40;24.10;;;;;;;5.37;100.00;101194.16;213690;1288;138828;-89
2023/02/16 10:15:27;;;;;;;51.70;24.10;;;;;;;5.47;100.00;101194.73;214262;1292;109780;-87
2023/02/16 10:21:31;;;;;;;52.00;25.60;;;;;;;5.61;100.00;101192.64;213729;1288;139341;-89
2023/02/16 10:33:42;;;;;;;47.50;24.90;;;;;;;6.00;100.00;101195.33;213786;1290;105795;-90
2023/02/16 10:39:59;;;;;;;;;;;;;;;;;;;;;
2023/02/16 10:45:57;;;;;;;52.30;26.40;;;;;;;6.29;98.20;101183.42;214160;1293;106428;-88
2023/02/16 10:58:08;;;;;;;48.70;24.20;;;;;;;6.49;97.14;101180.06;213758;1292;138681;-91
2023/02/16 11:04:10;;;;;;;49.20;25.30;;;;;;;6.68;96.65;101173.31;214763;1288;105161;-87
2023/02/16 11:16:19;;;;;;;51.00;25.60;;;;;;;7.01;95.09;101160.56;214436;1293;104748;-90
2023/02/16 11:22:20;;;;;;;;;;;;;;;;;;;;;
2023/02/16 11:28:23;;;;;;;50.20;25.30;;;;;;;7.14;93.27;101142.52;213720;1292;139080;-89
2023/02/16 11:34:26;;;;;;;59.60;30.00;;;;;;;7.15;93.35;101141.38;213943;1288;105150;-88
2023/02/16 11:40:22;;;;;;;52.50;26.50;;;;;;;7.27;93.50;101139.40;213716;1289;138725;-90
2023/02/16 11:52:31;;;;;;;51.50;28.20;;;;;;;7.45;92.63;101144.59;214173;1288;106590;-89
2023/02/16 12:04:32;;;;;;;56.00;31.40;;;;;;;7.69;91.82;101140.92;214458;1289;106445;-88
2023/02/16 12:10:29;;;;;;;59.70;31.20;;;;;;;7.71;91.95;101138.66;214017;1288;139594;-88
2023/02/16 12:16:19;;;;;;;;;;;;;;;7.75;91.17;101132.67;213787;1288;139263;-91
2023/02/16 12:28:36;;;;;;;58.80;31.40;;;;;;;7.70;90.69;101123.35;214105;1288;138546;-92
2023/02/16 12:41:05;;;;;;;55.80;30.40;;;;;;;7.85;90.80;101111.02;214325;1288;138182;-90
2023/02/16 12:47:11;;;;;;;58.30;30.80;;;;;;;7.84;90.35;101109.50;214200;1288;138424;-89
2023/02/16 12:53:10;;;;;;;60.30;31.80;;;;;;;7.87;90.53;101101.92;214460;1288;109956;-91
2023/02/16 13:05:24;;;;;;;58.70;30.90;;;;;;;7.93;90.68;101095.86;214220;1288;110650;-88
2023/02/16 13:11:27;;;;;;;60.50;32.00;;;;;;;8.00;90.79;101091.20;213958;1288;138360;-87
2023/02/16 13:17:27;;;;;;;59.40;32.10;;;;;;;8.08;90.07;101082.09;213798;1289;138707;-88
2023/02/16 13:30:00;;;;;;;54.50;30.10;;;;;;;8.20;89.27;101067.52;213990;1292;138722;-90
2023/02/16 13:48:37;;;;;;;54.20;29.10;;;;;;;8.34;89.69;101058.79;213648;1292;140086;-89
2023/02/16 13:54:38;;;;;;;57.20;31.90;;;;;;;8.37;88.83;101053.15;213794;1289;140371;-88
2023/02/16 14:00:41;;;;;;;65.10;32.60;;;;;;;8.42;88.87;101048.70;214033;1288;139080;-89
2023/02/16 14:06:41;;;;;;;60.60;31.30;;;;;;;8.44;88.36;101043.55;213562;1294;138898;-85
2023/02/16 14:19:07;;;;;;;54.00;29.30;;;;;;;8.46;88.18;101045.89;214321;1292;139057;-89
2023/02/16 14:25:11;;;;;;;58.90;31.90;;;;;;;8.45;88.38;101042.31;214452;1288;138921;-89
2023/02/16 14:31:58;;;;;;;59.10;31.60;;;;;;;8.44;88.63;101039.32;213897;1288;138630;-91
2023/02/16 14:37:35;;;;;;;54.40;31.30;;;;;;;8.46;88.72;101039.93;214110;1288;140751;-90
2023/02/16 14:43:36;;;;;;;57.00;30.40;;;;;;;8.45;88.30;101043.53;214735;1291;138501;-90
2023/02/16 14:49:45;;;;;;;65.30;33.30;;;;;;;8.46;88.10;101041.50;213629;1288;140019;-89
2023/02/16 14:55:51;;;;;;;56.40;31.50;;;;;;;8.44;88.22;101031.97;214240;1291;138544;-90
2023/02/16 15:02:04;;;;;;;53.90;29.70;;;;;;;8.41;88.16;101026.55;213948;1291;138605;-89
2023/02/16 15:08:08;;;;;;;58.80;31.40;;;;;;;8.37;87.86;101029.48;213853;1288;139105;-89
2023/02/16 15:14:06;;;;;;;53.60;29.80;;;;;;;8.31;88.35;101027.90;214470;1292;140026;-87
2023/02/16 15:20:09;;;;;;;59.10;30.90;;;;;;;8.24;88.29;101028.86;214044;1288;139298;-87
2023/02/16 15:26:14;;;;;;;61.40;32.20;;;;;;;8.16;88.64;101021.95;214427;1291;138596;-87
2023/02/16 15:32:16;;;;;;;58.70;31.80;;;;;;;8.05;88.72;101021.43;214892;1288;138531;-87
2023/02/16 15:38:30;;;;;;;59.60;30.40;;;;;;;7.94;88.99;101020.31;214785;1288;138855;-88
2023/02/16 15:44:43;;;;;;;58.20;31.30;;;;;;;7.81;89.19;101020.31;214869;1291;138836;-87
2023/02/16 15:50:45;;;;;;;60.70;32.10;;;;;;;7.70;89.33;101024.26;215024;1291;138653;-87
2023/02/16 15:56:47;;;;;;;55.80;28.80;;;;;;;7.58;89.60;101021.85;213684;1288;139342;-87
2023/02/16 16:02:50;;;;;;;57.10;30.50;;;;;;;7.45;89.81;101015.54;214363;1288;138679;-87
2023/02/16 16:08:51;;;;;;;53.30;30.50;;;;;;;7.33;90.24;101013.32;213984;1291;139567;-88
2023/02/16 16:14:52;;;;;;;64.60;33.70;;;;;;;7.18;90.51;101011.73;214702;1288;138711;-87
2023/02/16 16:21:05;;;;;;;63.50;35.10;;;;;;;7.00;90.63;101013.38;214042;1288;138655;-89
2023/02/16 16:27:18;;;;;;;66.80;33.80;;;;;;;6.77;91.05;101015.23;214224;1288;138967;-92
2023/02/16 16:33:22;;;;;;;68.20;36.50;;;;;;;6.59;91.44;101020.59;214857;1291;138733;-88
2023/02/16 16:39:24;;;;;;;73.60;40.20;;;;;;;6.38;91.96;101023.11;213916;1292;139484;-86
2023/02/16 16:45:33;;;;;;;69.50;36.70;;;;;;;6.20;92.52;101020.38;214485;1288;138658;-86
2023/02/16 16:51:50;;;;;;;69.30;38.50;;;;;;;6.06;92.99;101018.35;213716;1289;140106;-86
2023/02/16 17:03:58;;;;;;;61.50;34.70;;;;;;;5.69;93.87;101012.02;214451;1294;138434;-87
2023/02/16 17:16:09;;;;;;;69.20;35.40;;;;;;;5.35;94.38;101008.63;214476;1289;138545;-87
2023/02/16 17:22:11;;;;;;;59.40;30.60;;;;;;;5.16;95.13;101020.01;214078;1288;138513;-87
2023/02/16 17:28:12;;;;;;;65.20;35.40;;;;;;;4.99;95.29;101029.30;213739;1293;139263;-87
2023/02/16 17:34:13;;;;;;;73.30;40.10;;;;;;;4.82;96.02;101024.16;215222;1294;138485;-88
2023/02/16 17:40:14;;;;;;;79.20;42.80;;;;;;;4.69;96.28;101019.11;214596;1294;139288;-87
2023/02/16 17:46:15;;;;;;;81.70;43.30;;;;;;;4.54;96.66;101015.34;214576;1292;138968;-88
2023/02/16 17:58:18;;;;;;;79.10;40.40;;;;;;;4.31;97.73;101015.77;213694;1289;139319;-88
2023/02/16 18:10:22;;;;;;;101.40;48.40;;;;;;;4.12;98.68;101024.87;214132;1292;138865;-87
2023/02/16 18:16:17;;;;;;;;;;;;;;;;;;;;;
2023/02/16 18:34:21;;;;;;;85.40;43.70;;;;;;;3.86;100.00;101016.35;214243;1288;139186;-87
2023/02/16 18:40:23;;;;;;;128.90;52.70;;;;;;;3.84;100.00;101013.21;213478;1293;139168;-87
2023/02/16 18:46:24;;;;;;;165.20;66.40;;;;;;;3.87;100.00;101005.55;213499;1288;139422;-87
2023/02/16 18:52:25;;;;;;;155.00;63.10;;;;;;;3.88;100.00;101005.79;213998;1289;139256;-88
2023/02/16 19:04:27;;;;;;;105.70;50.60;;;;;;;3.95;100.00;100998.54;214118;1292;139350;-88
2023/02/16 19:10:29;;;;;;;91.70;46.30;;;;;;;3.99;100.00;101001.60;213805;1289;139173;-89
2023/02/16 19:16:31;;;;;;;90.90;44.30;;;;;;;4.01;100.00;101002.71;213816;1292;139686;-89
2023/02/16 19:22:35;;;;;;;91.70;44.50;;;;;;;4.03;100.00;101002.10;214116;1288;138724;-87
2023/02/16 19:40:38;;;;;;;76.10;38.00;;;;;;;4.12;100.00;101001.67;213102;1289;139330;-87
2023/02/16 19:46:40;;;;;;;79.10;37.70;;;;;;;4.16;100.00;100999.29;213684;1288;138608;-88
2023/02/16 20:04:46;;;;;;;69.90;33.60;;;;;;;4.40;100.00;100994.21;214191;1294;138620;-85
2023/02/16 20:10:47;;;;;;;60.00;31.50;;;;;;;4.49;100.00;100986.77;214866;1292;138973;-87
2023/02/16 20:28:51;;;;;;;57.60;26.60;;;;;;;4.84;100.00;100993.83;213932;1294;139137;-87
2023/02/16 20:40:53;;;;;;;55.50;27.80;;;;;;;5.11;100.00;100986.75;213903;1289;139595;-87
2023/02/16 20:46:54;;;;;;;54.90;25.80;;;;;;;5.28;100.00;100987.05;213789;1292;138999;-88
2023/02/16 20:52:55;;;;;;;51.50;24.60;;;;;;;5.40;100.00;100985.84;213998;1291;138564;-87
2023/02/16 20:58:56;;;;;;;51.50;25.20;;;;;;;5.54;100.00;100990.20;213466;1291;138804;-87
2023/02/16 21:04:57;;;;;;;45.50;25.40;;;;;;;5.66;99.94;100996.23;213890;1289;139063;-88
2023/02/16 21:10:59;;;;;;;61.00;28.60;;;;;;;5.77;99.99;100997.28;213393;1291;138736;-87
2023/02/16 21:17:24;;;;;;;52.70;26.50;;;;;;;5.86;99.97;100990.35;213535;1294;138858;-88
2023/02/16 21:23:02;;;;;;;45.60;24.50;;;;;;;5.92;99.95;100989.25;210034;1289;5384680;-88
2023/02/16 22:11:04;;;;;;;47.10;25.40;;;;;;;5.93;100.00;100937.40;214137;1292;138937;-86
2023/02/16 22:17:03;;;;;;;;;;;;;;;;;;;;;
2023/02/16 22:29:06;;;;;;;50.50;25.40;;;;;;;5.90;100.00;100916.79;213463;1291;139460;-88
2023/02/16 22:35:07;;;;;;;47.60;25.20;;;;;;;5.88;100.00;100912.21;213959;1293;138580;-87
2023/02/16 22:41:08;;;;;;;49.20;25.70;;;;;;;5.87;100.00;100913.05;213612;1292;139393;-87
2023/02/16 22:47:09;;;;;;;50.00;24.10;;;;;;;5.89;100.00;100912.88;213709;1292;138782;-86
2023/02/16 22:59:11;;;;;;;52.60;26.60;;;;;;;5.96;100.00;100900.04;213605;1288;139001;-94
2023/02/16 23:05:13;;;;;;;47.30;25.40;;;;;;;6.01;100.00;100898.19;213867;1292;138505;-93
2023/02/16 23:17:26;;;;;;;51.00;26.40;;;;;;;6.07;100.00;100890.52;214219;1292;139199;-90
2023/02/16 23:23:29;;;;;;;50.80;28.10;;;;;;;6.11;99.91;100887.30;214253;1291;96530;-91
2023/02/16 23:35:32;;;;;;;43.00;24.50;;;;;;;6.12;99.41;100893.66;213987;1294;138630;-89
2023/02/16 23:41:37;;;;;;;43.40;23.40;;;;;;;6.09;99.21;100900.52;213970;1288;138172;-91
2023/02/16 23:47:37;;;;;;;47.30;24.90;;;;;;;6.05;98.98;100904.96;213950;1292;138763;-93
